Accueil
METAR-TAF:

METAR-TAF

Aéroports :

Khartoum, Soudan

Aéroport international de Khartoum

latitude: 15-36N, longitude: 032-33E, altitude: 382 m

Observation

Le bulletin a été fait il y a 18 minutes, à 22:30 UTC
Vent 6 kt de nord
Température 27°C
Humidité 9%
Pression 1009 hPa
Visibilité 10 km ou plus
pas de nuages en-dessous de 1500 mètres et pas de cumulonimbus.

METAR: HSSS 242230Z 36006KT CAVOK 27/M08 Q1009 NOSIG

Heure: 01:48 (22:48 UTC)

Prévision

Le bulletin a été fait il y a 5 heures et 48 minutes, à 17:00 UTC
Prévision valable du 24 à 18 UTC au 25 à 24 UTC
Vent 10 kt de nord/nord-est avec des rafales jusqu'à 20 kt
Visibilité: 8000 m
Ciel clair

TAF: HSSS 241700Z 2418/2524 03010G20KT 8000 SKC

Observations et prévisions météorologiques de plus de 4000 aéroports (messages METAR et TAF).

Les stations disponibles sont représentées par des disques jaunes et rouges sur la carte.

Passer la souris dessus pour voir le nom de la station.

Cliquer dessus pour voir les observations et prévisions météorologiques.

Pour changer de carte: cliquez sur les boutons verts avec une croix noire pour zoomer, sur le bouton vert avec un tiret pour effectuer un zoom arrière, ou sur les flèches vertes pour les cartes adjacentes.


METAR-TAF: